Archival Weather

Chicago O'Hare International

Chicago, Illinois (KORD)

Report from: Monday, January 23, 2023 5:35 AM CST
Current time: Thursday, July 18, 2024 9:36 PM CDT

Current weather – Weather history – Daily summaries
Weather forecast

Present weatherLight snow, mist
Temperature-5.6°C (21.9°F)
Wind chill-11.3°C (11.7°F)
Dew point-8.3°C (17.1°F)
Winds 8 kts (4.1 m/s, 9.2 mph) West-Northwest (290°)
Visibility6 mi. (9.7 km)
Clouds Ceiling: Overcast 900 ft. (274 m)
Altimeter30.04 in.Hg (1017 mB)
PrecipitiationTrace
Precip. events Snow began 11:35 AM
Relative humidity81 %
Density altitude-2,634 ft. (-803 m)
Remarks System requires maintenance
Automated weather observing station with precipitation discriminator
Flight conditions Instrument Meteorological Conditions
Raw dataKORD 231135Z 29008KT 6SM -SN BR OVC009 M06/M08 A3004 RMK AO2 SNB35 P0000 T10561083 $
An error has occurred. This application may no longer respond until reloaded. Reload 🗙